Blue Dog Lake, South Dakota
Current Conditions -  °F | °C
As of 1:53 AM on Friday 19 Dec 2014 (Local Time) from KATY Reporting Station
Haze Haze  
Wind Chill: 18°   Ceiling: 300
Heat Index: 26°   Visibility: 2mi
Dew Point: 24°   Wind: 8mph
Humidity: 92%   Direction: 190°S
Pressure: 30.11"   Gusts: NA
Location:  45.3948°N, 97.2932°W
Report Text: KATY 190753Z AUTO 19007KT 2SM BR OVC003 M03/M04 A3011 RMK AO2 SLP221 T10331044
Loading
Personal Weather Stations






























Interactive Weather Map New forecast layout! Learn more

10-Day Weather Forecast

Advertisements
Track Severe Weather on mobile